createdAt,value
2018-03-18T00:00:05.019Z,87.75
2018-03-18T00:01:05.016Z,88.11
2018-03-18T00:02:05.014Z,88.86
2018-03-18T00:03:05.021Z,88.67
2018-03-18T00:04:05.022Z,88.38
2018-03-18T00:05:05.045Z,88.53
2018-03-18T00:06:05.029Z,88.49
2018-03-18T00:07:05.030Z,87.87
2018-03-18T00:08:05.037Z,87.67
2018-03-18T00:09:05.040Z,88.5
2018-03-18T00:10:05.042Z,88.17
2018-03-18T00:11:05.049Z,87.69
2018-03-18T00:12:05.053Z,87.03
2018-03-18T00:13:05.059Z,87.57
2018-03-18T00:14:05.066Z,88.11
2018-03-18T00:15:05.097Z,88
2018-03-18T00:16:05.065Z,88.41
2018-03-18T00:17:05.064Z,88.3
2018-03-18T00:18:05.071Z,88.75
2018-03-18T00:19:05.071Z,88.34
2018-03-18T00:20:05.092Z,88.69
2018-03-18T00:21:05.084Z,88.78
2018-03-18T00:22:05.083Z,88.79
2018-03-18T00:23:05.089Z,89.39
2018-03-18T00:24:05.092Z,89.62
2018-03-18T00:25:05.092Z,89.48
2018-03-18T00:26:05.104Z,89.69
2018-03-18T00:27:05.107Z,89.13
2018-03-18T00:28:05.110Z,89.12
2018-03-18T00:29:05.119Z,89
2018-03-18T00:30:05.250Z,88.75
2018-03-18T00:31:05.125Z,89.43
2018-03-18T00:32:05.127Z,89.66
2018-03-18T00:33:05.135Z,89.28
2018-03-18T00:34:05.139Z,89.02
2018-03-18T00:35:05.187Z,89.41
2018-03-18T00:36:05.155Z,89.32
2018-03-18T00:37:05.158Z,89.66
2018-03-18T00:38:05.160Z,89.51
2018-03-18T00:39:05.172Z,89.7
2018-03-18T00:40:05.182Z,89.17
2018-03-18T00:41:05.162Z,89.07
2018-03-18T00:42:05.166Z,89.45
2018-03-18T00:43:05.180Z,89.3
2018-03-18T00:44:05.183Z,89.24
2018-03-18T00:45:05.185Z,89.04
2018-03-18T00:46:05.183Z,89.54
2018-03-18T00:47:05.186Z,89.44
2018-03-18T00:48:05.219Z,89.75
2018-03-18T00:49:05.189Z,89.92
2018-03-18T00:50:05.196Z,89.26
2018-03-18T00:51:05.376Z,89.23
2018-03-18T00:52:05.203Z,88.94
2018-03-18T00:53:05.202Z,89.11
2018-03-18T00:54:05.207Z,88.91
2018-03-18T00:55:05.205Z,88.24
2018-03-18T00:56:05.233Z,88.87
2018-03-18T00:57:05.220Z,89.42
2018-03-18T00:58:05.213Z,90.09
2018-03-18T00:59:05.213Z,90.03
2018-03-18T01:00:05.223Z,89.87
2018-03-18T01:01:05.224Z,90.01
2018-03-18T01:02:05.234Z,89.65
2018-03-18T01:03:05.234Z,89.96
2018-03-18T01:04:05.295Z,90.22
2018-03-18T01:05:05.238Z,90.4
2018-03-18T01:06:05.236Z,90.35
2018-03-18T01:07:05.242Z,90.64
2018-03-18T01:08:05.239Z,90.5
2018-03-18T01:09:05.266Z,90.46
2018-03-18T01:10:05.245Z,89.84
2018-03-18T01:11:05.255Z,89.77
2018-03-18T01:12:05.264Z,90.04
2018-03-18T01:13:05.253Z,89.83
2018-03-18T01:14:05.351Z,90.13
2018-03-18T01:15:06.304Z,90.62
2018-03-18T01:16:05.268Z,90.02
2018-03-18T01:17:05.272Z,90.13
2018-03-18T01:18:05.279Z,89.91
2018-03-18T01:19:05.276Z,90.31
2018-03-18T01:20:05.285Z,90.95
2018-03-18T01:21:05.292Z,90.38
2018-03-18T01:22:05.303Z,90.66
2018-03-18T01:23:05.296Z,91.2
2018-03-18T01:24:05.297Z,90.85
2018-03-18T01:25:05.299Z,90.66
2018-03-18T01:26:05.302Z,90.98
2018-03-18T01:27:05.311Z,90.77
2018-03-18T01:28:05.312Z,90.93
2018-03-18T01:29:05.579Z,90.23
2018-03-18T01:30:05.311Z,90.56
2018-03-18T01:31:05.325Z,90.47
2018-03-18T01:32:05.327Z,91.04
2018-03-18T01:33:05.323Z,90.02
2018-03-18T01:34:05.347Z,89.83
2018-03-18T01:35:05.343Z,90.01
2018-03-18T01:36:05.341Z,90.41
2018-03-18T01:37:05.343Z,90.77
2018-03-18T01:38:05.353Z,90.51
2018-03-18T01:39:05.343Z,89.88
2018-03-18T01:40:05.342Z,89.93
2018-03-18T01:41:05.353Z,89.84
2018-03-18T01:42:05.348Z,90.05
2018-03-18T01:43:05.359Z,89.42
2018-03-18T01:44:05.366Z,89.7
2018-03-18T01:45:05.364Z,89.56
2018-03-18T01:46:05.367Z,90.06
2018-03-18T01:47:05.366Z,89.92
2018-03-18T01:48:05.533Z,89.98
2018-03-18T01:49:05.374Z,89.97
2018-03-18T01:50:05.377Z,89.52
2018-03-18T01:51:05.377Z,89.3
2018-03-18T01:52:05.384Z,89.71
2018-03-18T01:53:06.411Z,89.3
2018-03-18T01:54:05.393Z,89.93
2018-03-18T01:55:05.390Z,89.69
2018-03-18T01:56:05.399Z,89.27
2018-03-18T01:57:05.399Z,89.56
2018-03-18T01:58:05.438Z,89.73
2018-03-18T01:59:05.404Z,88.23
2018-03-18T02:00:05.406Z,88.71
2018-03-18T02:01:05.416Z,89.43
2018-03-18T02:02:05.423Z,89.55
2018-03-18T02:03:05.427Z,89.88
2018-03-18T02:04:05.456Z,90.19
2018-03-18T02:05:05.436Z,89.97
2018-03-18T02:06:05.441Z,89.49
2018-03-18T02:07:05.443Z,90.09
2018-03-18T02:08:05.450Z,89.63
2018-03-18T02:09:05.488Z,90.02
2018-03-18T02:10:05.458Z,89.56
2018-03-18T02:11:05.463Z,89.46
2018-03-18T02:12:05.468Z,89.55
2018-03-18T02:13:05.467Z,89.62
2018-03-18T02:14:05.489Z,89.55
2018-03-18T02:15:05.476Z,90.01
2018-03-18T02:16:05.480Z,89.91
2018-03-18T02:17:05.494Z,89.93
2018-03-18T02:18:05.482Z,90.6
2018-03-18T02:19:05.483Z,90.7
2018-03-18T02:20:05.491Z,90.56
2018-03-18T02:21:05.492Z,89.59
2018-03-18T02:22:05.493Z,89.83
2018-03-18T02:23:05.495Z,90.5
2018-03-18T02:24:05.493Z,90.87
2018-03-18T02:25:05.501Z,89.98
2018-03-18T02:26:05.639Z,90.33
2018-03-18T02:27:05.502Z,90
2018-03-18T02:28:05.509Z,89.99
2018-03-18T02:29:05.512Z,89.92
2018-03-18T02:30:05.518Z,90.62
2018-03-18T02:31:05.545Z,89.98
2018-03-18T02:32:05.533Z,89.7
2018-03-18T02:33:05.527Z,90.07
2018-03-18T02:34:05.530Z,89.92
2018-03-18T02:35:05.530Z,89.57
2018-03-18T02:36:05.556Z,89.73
2018-03-18T02:37:05.538Z,89.35
2018-03-18T02:38:05.554Z,89.88
2018-03-18T02:39:05.554Z,89.52
2018-03-18T02:40:05.548Z,88.99
2018-03-18T02:41:05.577Z,89.05
2018-03-18T02:42:05.557Z,89.25
2018-03-18T02:43:05.565Z,89.5
2018-03-18T02:44:05.561Z,89.59
2018-03-18T02:45:05.561Z,89.02
2018-03-18T02:46:05.588Z,89.78
2018-03-18T02:47:05.574Z,90.11
2018-03-18T02:48:05.572Z,89.65
2018-03-18T02:49:05.571Z,90.41
2018-03-18T02:50:05.578Z,89.58
2018-03-18T02:51:05.601Z,89.51
2018-03-18T02:52:05.579Z,89.34
2018-03-18T02:53:05.597Z,89.96
2018-03-18T02:54:05.593Z,89.74
2018-03-18T02:55:05.607Z,89.73
2018-03-18T02:56:05.624Z,90.29
2018-03-18T02:57:05.605Z,90.11
2018-03-18T02:58:05.604Z,90.37
2018-03-18T02:59:05.627Z,90.53
2018-03-18T03:00:05.608Z,90.83
2018-03-18T03:01:05.611Z,90.62
2018-03-18T03:02:05.614Z,90.26
2018-03-18T03:03:05.616Z,90.1
2018-03-18T03:04:05.639Z,90.22
2018-03-18T03:05:05.629Z,90.33
2018-03-18T03:06:05.654Z,89.96
2018-03-18T03:07:05.639Z,89.55
2018-03-18T03:08:05.642Z,89.38
2018-03-18T03:09:05.647Z,89.34
2018-03-18T03:10:05.648Z,89.49
2018-03-18T03:11:05.668Z,89.67
2018-03-18T03:12:05.648Z,89.98
2018-03-18T03:13:05.652Z,89.8
2018-03-18T03:14:05.652Z,89.74
2018-03-18T03:15:05.662Z,89.13
2018-03-18T03:16:05.655Z,89.58
2018-03-18T03:17:05.668Z,89.67
2018-03-18T03:18:05.661Z,89.76
2018-03-18T03:19:05.657Z,89.8
2018-03-18T03:20:05.665Z,89.9
2018-03-18T03:21:05.835Z,90.39
2018-03-18T03:22:05.688Z,90.09
2018-03-18T03:23:05.680Z,90.14
2018-03-18T03:24:05.681Z,89.57
2018-03-18T03:25:05.684Z,90.63
2018-03-18T03:26:05.714Z,90.09
2018-03-18T03:27:05.697Z,89.99
2018-03-18T03:28:05.696Z,90.35
2018-03-18T03:29:05.702Z,89.82
2018-03-18T03:30:05.711Z,89.84
2018-03-18T03:31:05.718Z,90.18
2018-03-18T03:32:05.720Z,89.39
2018-03-18T03:33:05.718Z,89.57
2018-03-18T03:34:05.722Z,89.52
2018-03-18T03:35:05.719Z,88.9
2018-03-18T03:36:05.746Z,89.02
2018-03-18T03:37:05.732Z,88.75
2018-03-18T03:38:05.736Z,88.82
2018-03-18T03:39:05.736Z,89.13
2018-03-18T03:40:05.743Z,89.39
2018-03-18T03:41:05.780Z,89.66
2018-03-18T03:42:05.772Z,89.52
2018-03-18T03:43:05.753Z,88.93
2018-03-18T03:44:05.761Z,89.41
2018-03-18T03:45:05.768Z,89.08
2018-03-18T03:46:05.770Z,89.61
2018-03-18T03:47:05.790Z,88.91
2018-03-18T03:48:05.778Z,89.24
2018-03-18T03:49:05.771Z,88.81
2018-03-18T03:50:05.778Z,89.21
2018-03-18T03:51:05.803Z,89.24
2018-03-18T03:52:05.791Z,89.17
2018-03-18T03:53:05.797Z,89.27
2018-03-18T03:54:05.800Z,89.06
2018-03-18T03:55:05.829Z,89.13
2018-03-18T03:56:05.819Z,88.93
2018-03-18T03:57:05.817Z,88.58
2018-03-18T03:58:05.821Z,88.06
2018-03-18T03:59:05.813Z,87.84
2018-03-18T04:00:05.813Z,88.68
2018-03-18T04:01:05.818Z,88.59
2018-03-18T04:02:05.847Z,89.45
2018-03-18T04:03:05.822Z,89.11
2018-03-18T04:04:05.829Z,89.02
2018-03-18T04:05:05.825Z,89.33
2018-03-18T04:06:05.833Z,89.04
2018-03-18T04:07:05.852Z,88.51
2018-03-18T04:08:05.837Z,88.91
2018-03-18T04:09:05.848Z,88.32
2018-03-18T04:10:05.845Z,88.21
2018-03-18T04:11:05.843Z,87.8
2018-03-18T04:12:05.861Z,87.9
2018-03-18T04:13:05.851Z,87.58
2018-03-18T04:14:05.850Z,88.62
2018-03-18T04:15:05.843Z,88.15
2018-03-18T04:16:05.847Z,87.18
2018-03-18T04:17:05.848Z,87.33
2018-03-18T04:18:05.850Z,87.9
2018-03-18T04:19:05.850Z,87.88
2018-03-18T04:20:05.846Z,88.17
2018-03-18T04:21:05.855Z,87.43
2018-03-18T04:22:06.142Z,87.45
2018-03-18T04:23:05.855Z,87.96
2018-03-18T04:24:05.851Z,87.9
2018-03-18T04:25:05.863Z,87.79
2018-03-18T04:26:05.862Z,87.34
2018-03-18T04:27:05.887Z,87.6
2018-03-18T04:28:05.893Z,86.55
2018-03-18T04:29:05.884Z,86.45
2018-03-18T04:30:05.886Z,86.49
2018-03-18T04:31:05.886Z,86.33
2018-03-18T04:32:05.884Z,84.94
2018-03-18T04:33:05.890Z,85.68
2018-03-18T04:34:05.918Z,84.06
2018-03-18T04:35:05.890Z,85.07
2018-03-18T04:36:05.899Z,85.46
2018-03-18T04:37:05.901Z,85.03
2018-03-18T04:38:05.909Z,85.03
2018-03-18T04:39:05.938Z,84.79
2018-03-18T04:40:05.911Z,85
2018-03-18T04:41:05.917Z,84.67
2018-03-18T04:42:05.919Z,84.92
2018-03-18T04:43:05.931Z,83.53
2018-03-18T04:44:05.953Z,83.32
2018-03-18T04:45:05.916Z,83.43
2018-03-18T04:46:05.921Z,83.2
2018-03-18T04:47:05.935Z,83.77
2018-03-18T04:48:05.981Z,83.16
2018-03-18T04:49:05.955Z,84.35
2018-03-18T04:50:05.930Z,84.56
2018-03-18T04:51:06.320Z,85.47
2018-03-18T04:52:05.976Z,84.22
2018-03-18T04:53:05.944Z,84.32
2018-03-18T04:54:05.951Z,84.54
2018-03-18T04:55:05.958Z,84.75
2018-03-18T04:56:05.980Z,83.57
2018-03-18T04:57:05.964Z,82.58
2018-03-18T04:58:05.960Z,83.43
2018-03-18T04:59:06.008Z,83.76
2018-03-18T05:00:05.961Z,83.6
2018-03-18T05:01:05.986Z,84.28
2018-03-18T05:02:05.958Z,84.47
2018-03-18T05:03:05.955Z,84.02
2018-03-18T05:04:05.954Z,84.37
2018-03-18T05:05:05.962Z,84.27
2018-03-18T05:06:05.969Z,83.67
2018-03-18T05:07:05.967Z,82.93
2018-03-18T05:08:05.968Z,83.38
2018-03-18T05:09:05.976Z,83.77
2018-03-18T05:10:05.980Z,83.68
2018-03-18T05:11:06.008Z,83.22
2018-03-18T05:12:05.992Z,83.42
2018-03-18T05:13:05.997Z,84.2
2018-03-18T05:14:06.016Z,83.33
2018-03-18T05:15:06.005Z,83.02
2018-03-18T05:16:06.031Z,83.4
2018-03-18T05:17:06.014Z,83.13
2018-03-18T05:18:06.010Z,82.41
2018-03-18T05:19:06.017Z,82.89
2018-03-18T05:20:07.715Z,83.93
2018-03-18T05:21:06.058Z,83.96
2018-03-18T05:22:06.042Z,82.94
2018-03-18T05:23:06.042Z,81.58
2018-03-18T05:24:06.045Z,81.83
2018-03-18T05:25:06.071Z,82.71
2018-03-18T05:26:06.076Z,81.89
2018-03-18T05:27:06.056Z,81.94
2018-03-18T05:28:06.062Z,82.97
2018-03-18T05:29:06.056Z,82.61
2018-03-18T05:30:06.081Z,82.03
2018-03-18T05:31:06.060Z,82.57
2018-03-18T05:32:06.061Z,83.48
2018-03-18T05:33:06.062Z,84.35
2018-03-18T05:34:06.060Z,81.65
2018-03-18T05:35:06.087Z,82.51
2018-03-18T05:36:06.062Z,82.67
2018-03-18T05:37:06.066Z,83.31
2018-03-18T05:38:06.113Z,83.61
2018-03-18T05:39:06.079Z,83.95
2018-03-18T05:40:06.079Z,83.57
2018-03-18T05:41:06.079Z,82.46
2018-03-18T05:42:06.084Z,82.83
2018-03-18T05:43:06.094Z,83.26
2018-03-18T05:44:06.099Z,82.5
2018-03-18T05:45:06.101Z,83.08
2018-03-18T05:46:06.103Z,82.23
2018-03-18T05:47:06.107Z,81.9
2018-03-18T05:48:06.099Z,82.48
2018-03-18T05:49:06.102Z,82.46
2018-03-18T05:50:06.114Z,83
2018-03-18T05:51:06.133Z,83.11
2018-03-18T05:52:06.109Z,83.59
2018-03-18T05:53:06.113Z,83.3
2018-03-18T05:54:06.115Z,83.21
2018-03-18T05:55:06.118Z,83.8
2018-03-18T05:56:06.140Z,83.41
2018-03-18T05:57:06.122Z,82.38
2018-03-18T05:58:06.128Z,82.54
2018-03-18T05:59:06.130Z,82.62
2018-03-18T06:00:06.145Z,82.9
2018-03-18T06:01:06.143Z,82.84
2018-03-18T06:02:06.151Z,83
2018-03-18T06:03:06.151Z,82.91
2018-03-18T06:04:06.151Z,82.95
2018-03-18T06:05:06.161Z,81.94
2018-03-18T06:06:06.190Z,81.78
2018-03-18T06:07:06.172Z,82.05
2018-03-18T06:08:06.173Z,82.74
2018-03-18T06:09:06.176Z,82.81
2018-03-18T06:10:06.187Z,82.87
2018-03-18T06:11:06.190Z,82.67
2018-03-18T06:12:06.183Z,83.2
2018-03-18T06:13:06.193Z,83.11
2018-03-18T06:14:06.198Z,84.8
2018-03-18T06:15:06.497Z,83.22
2018-03-18T06:16:06.209Z,82.03
2018-03-18T06:17:06.216Z,82.6
2018-03-18T06:18:06.213Z,83.3
2018-03-18T06:19:06.212Z,83.67
2018-03-18T06:20:06.501Z,82.98
2018-03-18T06:21:06.214Z,82.01
2018-03-18T06:22:06.219Z,82.2
2018-03-18T06:23:06.217Z,82.05
2018-03-18T06:24:06.238Z,82.17
2018-03-18T06:25:06.232Z,81.15
2018-03-18T06:26:06.413Z,82.27
2018-03-18T06:27:06.238Z,82.41
2018-03-18T06:28:06.242Z,81.17
2018-03-18T06:29:06.239Z,81.23
2018-03-18T06:30:06.244Z,81.8
2018-03-18T06:31:06.276Z,81.67
2018-03-18T06:32:06.248Z,81.36
2018-03-18T06:33:06.253Z,82.5
2018-03-18T06:34:06.261Z,82.57
2018-03-18T06:35:06.262Z,82.88
2018-03-18T06:36:06.301Z,83.36
2018-03-18T06:37:06.276Z,83.71
2018-03-18T06:38:06.279Z,84
2018-03-18T06:39:06.285Z,84.46
2018-03-18T06:40:06.282Z,82.31
2018-03-18T06:41:06.298Z,81.93
2018-03-18T06:42:06.282Z,81.39
2018-03-18T06:43:06.321Z,82.11
2018-03-18T06:44:06.303Z,82.72
2018-03-18T06:45:06.490Z,82.64
2018-03-18T06:46:06.291Z,82.51
2018-03-18T06:47:06.293Z,81.92
2018-03-18T06:48:06.306Z,82
2018-03-18T06:49:06.304Z,81.68
2018-03-18T06:50:06.352Z,81.91
2018-03-18T06:51:06.311Z,82.3
2018-03-18T06:52:06.321Z,82.83
2018-03-18T06:53:06.321Z,81.02
2018-03-18T06:54:06.332Z,80.57
2018-03-18T06:55:06.602Z,81.37
2018-03-18T06:56:06.337Z,81.19
2018-03-18T06:57:06.332Z,80.76
2018-03-18T06:58:06.335Z,81.2
2018-03-18T06:59:06.338Z,81.36
2018-03-18T07:00:06.506Z,80.95
2018-03-18T07:01:06.346Z,80.5
2018-03-18T07:02:06.342Z,81.81
2018-03-18T07:03:06.369Z,81.96
2018-03-18T07:04:06.351Z,82.54
2018-03-18T07:05:06.354Z,81.27
2018-03-18T07:06:06.349Z,81.52
2018-03-18T07:07:06.356Z,81.56
2018-03-18T07:08:06.379Z,80.88
2018-03-18T07:09:06.351Z,81.19
2018-03-18T07:10:06.357Z,81.29
2018-03-18T07:11:06.656Z,80.31
2018-03-18T07:12:06.390Z,81.27
2018-03-18T07:13:06.389Z,80.23
2018-03-18T07:14:06.366Z,80.64
2018-03-18T07:15:06.373Z,81.17
2018-03-18T07:16:06.408Z,80.77
2018-03-18T07:17:06.389Z,80.04
2018-03-18T07:18:06.390Z,80.39
2018-03-18T07:19:06.387Z,81.12
2018-03-18T07:20:06.434Z,80.24
2018-03-18T07:21:06.423Z,79.75
2018-03-18T07:22:06.399Z,80.68
2018-03-18T07:23:06.402Z,80.74
2018-03-18T07:24:06.414Z,80.66
2018-03-18T07:25:06.408Z,79.97
2018-03-18T07:26:06.409Z,80.25
2018-03-18T07:27:06.415Z,80.18
2018-03-18T07:28:06.422Z,79.26
2018-03-18T07:29:06.409Z,80.16
2018-03-18T07:30:06.418Z,81.32
2018-03-18T07:31:06.434Z,80.61
2018-03-18T07:32:06.416Z,79.98
2018-03-18T07:33:06.455Z,80.17
2018-03-18T07:34:06.429Z,79.84
2018-03-18T07:35:06.426Z,80.21
2018-03-18T07:36:06.480Z,79.83
2018-03-18T07:37:06.434Z,79.37
2018-03-18T07:38:06.480Z,78.82
2018-03-18T07:39:06.447Z,80.45
2018-03-18T07:40:06.444Z,80.7
2018-03-18T07:41:06.450Z,80.1
2018-03-18T07:42:06.549Z,79.67
2018-03-18T07:43:06.459Z,79.82
2018-03-18T07:44:06.463Z,79.51
2018-03-18T07:45:06.473Z,78.52
2018-03-18T07:46:06.471Z,78.22
2018-03-18T07:47:06.497Z,78.97
2018-03-18T07:48:06.505Z,79.75
2018-03-18T07:49:06.490Z,78.65
2018-03-18T07:50:06.491Z,79.32
2018-03-18T07:51:06.493Z,79.33
2018-03-18T07:52:06.501Z,78.06
2018-03-18T07:53:06.507Z,78
2018-03-18T07:54:06.511Z,78.29
2018-03-18T07:55:06.505Z,78.71
2018-03-18T07:56:06.516Z,78.76
2018-03-18T07:57:06.519Z,79.27
2018-03-18T07:58:06.525Z,79.22
2018-03-18T07:59:06.552Z,78.55
2018-03-18T08:00:06.526Z,78.66
2018-03-18T08:01:06.530Z,78.04
2018-03-18T08:02:06.545Z,78.42
2018-03-18T08:03:06.541Z,78.46
2018-03-18T08:04:06.567Z,78.11
2018-03-18T08:05:06.561Z,78.13
2018-03-18T08:06:06.563Z,78.33
2018-03-18T08:07:06.557Z,76.69
2018-03-18T08:08:06.564Z,78.46
2018-03-18T08:09:06.690Z,78.08
2018-03-18T08:10:06.565Z,78.37
2018-03-18T08:11:06.572Z,78.51
2018-03-18T08:12:06.570Z,78.64
2018-03-18T08:13:06.569Z,77.82
2018-03-18T08:14:06.635Z,78.33
2018-03-18T08:15:06.582Z,78.24
2018-03-18T08:16:06.600Z,78.05
2018-03-18T08:17:06.724Z,77.91
2018-03-18T08:18:06.615Z,77.68
2018-03-18T08:19:06.625Z,77.75
2018-03-18T08:20:06.603Z,77.62
2018-03-18T08:21:06.606Z,77.7
2018-03-18T08:22:06.633Z,78.41
2018-03-18T08:23:06.616Z,76.91
2018-03-18T08:24:06.643Z,76.86
2018-03-18T08:25:06.630Z,76.85
2018-03-18T08:26:06.632Z,77.96
2018-03-18T08:27:06.627Z,77.61
2018-03-18T08:28:06.628Z,77.06
2018-03-18T08:29:06.639Z,76.87
2018-03-18T08:30:06.630Z,76.58
2018-03-18T08:31:06.619Z,76.85
2018-03-18T08:32:06.732Z,76.35
2018-03-18T08:33:06.622Z,76.31
2018-03-18T08:34:06.682Z,76.82
2018-03-18T08:35:06.630Z,77.78
2018-03-18T08:36:06.641Z,77.45
2018-03-18T08:37:06.652Z,77.83
2018-03-18T08:38:06.641Z,77.01
2018-03-18T08:39:06.668Z,77.28
2018-03-18T08:40:06.665Z,77.18
2018-03-18T08:41:06.677Z,75.81
2018-03-18T08:42:06.652Z,76.65
2018-03-18T08:43:06.652Z,76.62
2018-03-18T08:44:06.680Z,76.66
2018-03-18T08:45:06.653Z,76.88
2018-03-18T08:46:06.666Z,77.32
2018-03-18T08:47:06.664Z,77.28
2018-03-18T08:48:06.669Z,77.24
2018-03-18T08:49:06.672Z,76.29
2018-03-18T08:50:06.662Z,77.52
2018-03-18T08:51:06.678Z,76.74
2018-03-18T08:52:06.672Z,76.39
2018-03-18T08:53:06.696Z,76.4
2018-03-18T08:54:06.707Z,76.31
2018-03-18T08:55:06.678Z,76.96
2018-03-18T08:56:06.678Z,77.12
2018-03-18T08:57:06.678Z,75.97
2018-03-18T08:58:06.710Z,75.93
2018-03-18T08:59:06.694Z,76.16
2018-03-18T09:00:06.689Z,75.72
2018-03-18T09:01:06.696Z,76.12
2018-03-18T09:02:06.703Z,75.5
2018-03-18T09:03:06.721Z,76.27
2018-03-18T09:04:06.708Z,76.72
2018-03-18T09:05:06.711Z,75.6
2018-03-18T09:06:06.716Z,76.4
2018-03-18T09:07:06.720Z,76.12
2018-03-18T09:08:06.748Z,75.55
2018-03-18T09:09:06.725Z,76.24
2018-03-18T09:10:06.726Z,75.85
2018-03-18T09:11:06.734Z,75.49
2018-03-18T09:12:06.729Z,75.64
2018-03-18T09:13:06.747Z,76.42
2018-03-18T09:14:06.735Z,76.25
2018-03-18T09:15:06.736Z,76.16
2018-03-18T09:16:06.737Z,75.46
2018-03-18T09:17:06.745Z,75.81
2018-03-18T09:18:06.767Z,75.84
2018-03-18T09:19:06.755Z,76.4
2018-03-18T09:20:06.763Z,75.49
2018-03-18T09:21:06.757Z,75.55
2018-03-18T09:22:06.762Z,76.47
2018-03-18T09:23:06.884Z,76.4
2018-03-18T09:24:06.776Z,76.61
2018-03-18T09:25:06.779Z,75.87
2018-03-18T09:26:06.785Z,75.92
2018-03-18T09:27:06.790Z,76.25
2018-03-18T09:28:06.817Z,75.18
2018-03-18T09:29:06.792Z,75.3
2018-03-18T09:30:06.792Z,75.33
2018-03-18T09:31:06.796Z,75.44
2018-03-18T09:32:06.800Z,75.29
2018-03-18T09:33:06.806Z,75.49
2018-03-18T09:34:06.814Z,76.05
2018-03-18T09:35:06.830Z,75.28
2018-03-18T09:36:06.825Z,75.14
2018-03-18T09:37:06.821Z,75.12
2018-03-18T09:38:06.823Z,74.6
2018-03-18T09:39:06.852Z,75.77
2018-03-18T09:40:06.823Z,75.17
2018-03-18T09:41:06.825Z,75.79
2018-03-18T09:42:06.836Z,75.89
2018-03-18T09:43:06.842Z,76.38
2018-03-18T09:44:06.838Z,76.49
2018-03-18T09:45:06.838Z,76.06
2018-03-18T09:46:06.849Z,75.87
2018-03-18T09:47:06.866Z,74.5
2018-03-18T09:48:06.845Z,75
2018-03-18T09:49:06.871Z,75.1
2018-03-18T09:50:06.845Z,75.26
2018-03-18T09:51:06.855Z,74.29
2018-03-18T09:52:06.858Z,74.78
2018-03-18T09:53:06.863Z,74.88
2018-03-18T09:54:06.869Z,75.42
2018-03-18T09:55:06.873Z,76.1
2018-03-18T09:56:06.908Z,75.61
2018-03-18T09:57:06.869Z,75.73
2018-03-18T09:58:06.869Z,75.53
2018-03-18T09:59:06.873Z,74.98
2018-03-18T10:00:06.880Z,74.97
2018-03-18T10:01:06.920Z,74.48
2018-03-18T10:02:06.900Z,75.51
2018-03-18T10:03:06.902Z,75.32
2018-03-18T10:04:06.957Z,75.24
2018-03-18T10:05:06.903Z,75.8
2018-03-18T10:06:06.905Z,74.69
2018-03-18T10:07:06.974Z,75.38
2018-03-18T10:08:06.925Z,75.57
2018-03-18T10:09:06.914Z,75.26
2018-03-18T10:10:06.907Z,74.67
2018-03-18T10:11:06.934Z,74.86
2018-03-18T10:12:06.913Z,74.21
2018-03-18T10:13:06.922Z,74.94
2018-03-18T10:14:06.928Z,74.35
2018-03-18T10:15:06.947Z,75.48
2018-03-18T10:16:06.954Z,74.79
2018-03-18T10:17:06.929Z,74.99
2018-03-18T10:18:06.934Z,75.35
2018-03-18T10:19:06.938Z,74.63
2018-03-18T10:20:06.939Z,74.63
2018-03-18T10:21:06.947Z,75.3
2018-03-18T10:22:06.948Z,74.76
2018-03-18T10:23:06.949Z,74.91
2018-03-18T10:24:06.956Z,75.51
2018-03-18T10:25:06.959Z,74.99
2018-03-18T10:26:06.962Z,75.28
2018-03-18T10:27:06.981Z,74.78
2018-03-18T10:28:06.970Z,75.48
2018-03-18T10:29:06.964Z,75.07
2018-03-18T10:30:07.000Z,75.56
2018-03-18T10:31:07.149Z,75.74
2018-03-18T10:32:06.993Z,75.01
2018-03-18T10:33:06.983Z,74.79
2018-03-18T10:34:06.982Z,75.49
2018-03-18T10:35:06.989Z,75.13
2018-03-18T10:36:06.992Z,75.42
2018-03-18T10:37:07.013Z,75.07
2018-03-18T10:38:06.993Z,74.8
2018-03-18T10:39:07.012Z,75.46
2018-03-18T10:40:07.005Z,75.28
2018-03-18T10:41:07.012Z,74.86
2018-03-18T10:42:07.006Z,74.6
2018-03-18T10:43:07.014Z,74.49
2018-03-18T10:44:07.016Z,74.12
2018-03-18T10:45:07.028Z,74.16
2018-03-18T10:46:07.010Z,74.82
2018-03-18T10:47:07.041Z,75.4
2018-03-18T10:48:07.023Z,75.22
2018-03-18T10:49:07.025Z,74.88
2018-03-18T10:50:07.026Z,75.17
2018-03-18T10:51:07.033Z,74.91
2018-03-18T10:52:07.033Z,74.18
2018-03-18T10:53:07.231Z,74.81
2018-03-18T10:54:07.038Z,74.62
2018-03-18T10:55:07.056Z,74.81
2018-03-18T10:56:07.051Z,75.12
2018-03-18T10:57:07.060Z,74.86
2018-03-18T10:58:07.092Z,74.6
2018-03-18T10:59:07.064Z,75.08
2018-03-18T11:00:07.068Z,74.54
2018-03-18T11:01:07.070Z,74.99
2018-03-18T11:02:07.080Z,73.96
2018-03-18T11:03:07.092Z,73.29
2018-03-18T11:04:07.123Z,73.31
2018-03-18T11:05:07.089Z,73.79
2018-03-18T11:06:07.093Z,74
2018-03-18T11:07:07.094Z,73.15
2018-03-18T11:08:07.093Z,73.72
2018-03-18T11:09:07.094Z,73.43
2018-03-18T11:10:07.094Z,74.08
2018-03-18T11:11:07.106Z,73.68
2018-03-18T11:12:07.113Z,73.69
2018-03-18T11:13:07.111Z,73.46
2018-03-18T11:14:07.355Z,73.9
2018-03-18T11:15:07.155Z,74.1
2018-03-18T11:16:07.166Z,73.18
2018-03-18T11:17:07.120Z,73.64
2018-03-18T11:18:07.123Z,73.97
2018-03-18T11:19:07.264Z,73.83
2018-03-18T11:20:07.125Z,73.59
2018-03-18T11:21:07.132Z,73.46
2018-03-18T11:22:07.308Z,74.04
2018-03-18T11:23:07.133Z,74.13
2018-03-18T11:24:07.158Z,73.75
2018-03-18T11:25:09.198Z,73.89
2018-03-18T11:26:07.224Z,73.57
2018-03-18T11:27:08.703Z,73.86
2018-03-18T11:28:07.155Z,73.71
2018-03-18T11:29:07.914Z,74.2
2018-03-18T11:30:07.971Z,73.48
2018-03-18T11:31:07.155Z,73.56
2018-03-18T11:32:07.185Z,73.08
2018-03-18T11:33:07.163Z,73.46
2018-03-18T11:34:07.177Z,73.5
2018-03-18T11:35:07.174Z,73.95
2018-03-18T11:36:07.177Z,74
2018-03-18T11:37:07.181Z,73.24
2018-03-18T11:38:07.190Z,73.18
2018-03-18T11:39:07.191Z,73.02
2018-03-18T11:40:07.231Z,72.84
2018-03-18T11:41:07.199Z,73.31
2018-03-18T11:42:07.204Z,73.63
2018-03-18T11:43:07.588Z,73.18
2018-03-18T11:44:07.210Z,73.22
2018-03-18T11:45:07.206Z,73.01
2018-03-18T11:46:07.210Z,73.67
2018-03-18T11:47:07.211Z,73.32
2018-03-18T11:48:07.215Z,73.4
2018-03-18T11:49:07.220Z,73.09
2018-03-18T11:50:07.249Z,73.1
2018-03-18T11:51:07.236Z,73.6
2018-03-18T11:52:07.231Z,73.2
2018-03-18T11:53:07.236Z,72.99
2018-03-18T11:54:07.238Z,72.4
2018-03-18T11:55:07.244Z,73.26
2018-03-18T11:56:07.252Z,72.12
2018-03-18T11:57:07.254Z,72.54
2018-03-18T11:58:07.258Z,72.16
2018-03-18T11:59:07.273Z,71.94
2018-03-18T12:00:07.262Z,72.43
2018-03-18T12:01:07.311Z,72.02
2018-03-18T12:02:07.261Z,72.64
2018-03-18T12:03:07.269Z,73.09
2018-03-18T12:04:07.272Z,72.89
2018-03-18T12:05:07.314Z,72.8
2018-03-18T12:06:07.280Z,72.86
2018-03-18T12:07:07.276Z,73.37
2018-03-18T12:08:07.277Z,72.5
2018-03-18T12:09:07.282Z,72.04
2018-03-18T12:10:07.281Z,72.26
2018-03-18T12:11:07.292Z,73.01
2018-03-18T12:12:07.296Z,73.06
2018-03-18T12:13:07.291Z,73.37
2018-03-18T12:14:07.294Z,73.49
2018-03-18T12:15:07.302Z,72.52
2018-03-18T12:16:07.306Z,73.03
2018-03-18T12:17:07.300Z,73.42
2018-03-18T12:18:07.305Z,72.77
2018-03-18T12:19:07.308Z,72.93
2018-03-18T12:20:07.311Z,73.59
2018-03-18T12:21:07.317Z,73.55
2018-03-18T12:22:07.316Z,73.3
2018-03-18T12:23:07.323Z,73.66
2018-03-18T12:24:07.325Z,72.9
2018-03-18T12:25:07.441Z,73.22
2018-03-18T12:26:07.444Z,72.63
2018-03-18T12:27:07.343Z,72.62
2018-03-18T12:28:07.366Z,72.65
2018-03-18T12:29:07.360Z,74.06
2018-03-18T12:30:07.369Z,72.98
2018-03-18T12:31:07.358Z,72.97
2018-03-18T12:32:07.362Z,72.07
2018-03-18T12:33:07.360Z,72.6
2018-03-18T12:34:07.394Z,72.44
2018-03-18T12:35:07.378Z,73.47
2018-03-18T12:36:07.409Z,73.47
2018-03-18T12:37:07.375Z,73.27
2018-03-18T12:38:07.426Z,73.25
2018-03-18T12:39:07.409Z,72.27
2018-03-18T12:40:07.438Z,72.8
2018-03-18T12:41:07.444Z,71.76
2018-03-18T12:42:07.453Z,72.22
2018-03-18T12:43:07.661Z,71.93
2018-03-18T12:44:07.462Z,71.5
2018-03-18T12:45:07.498Z,70.91
2018-03-18T12:46:07.407Z,71.6
2018-03-18T12:47:07.491Z,71.22
2018-03-18T12:48:07.449Z,72.54
2018-03-18T12:49:07.433Z,71.79
2018-03-18T12:50:07.511Z,70.76
2018-03-18T12:51:07.443Z,71.04
2018-03-18T12:52:07.449Z,69.99
2018-03-18T12:53:07.527Z,71.02
2018-03-18T12:54:07.441Z,70.98
2018-03-18T12:55:07.448Z,71.07
2018-03-18T12:56:07.449Z,70.74